Terminal Aerodrome Forecast
Issued by NWS

Current Version | Previous Version | Text Only | Print | Product List | Glossary On
Versions: 1 2 3 4 5 6 7 8 9 10 11 12 13
949
FTUS42 KILM 130528
TAFCRE
TAF
KCRE 130528Z 1306/1406 32008G15KT P6SM SCT045
     FM131800 23008KT P6SM SKC=

USA.gov is the U.S. government's official web portal to all federal, state and local government web resources and services.